Durango, CO

9:57 PM MDT on April 17, 2015 (GMT -0600)
Dalla Mountain Park | | Change Station
CLOSE
Current Station
Personal Weather Station
Location: Durango, CO
Elevation: 6752 ft
Nearby Weather Stations

Elev 6752 ft 37.30 °N, 107.88 °W | Updated 13 seconds ago

Mostly Cloudy
Mostly Cloudy
34.9 °F
Feels Like 35 °F
N
0.0
Wind Variable Wind from East
Gusts 0.0 mph

Today
High -- | Low -- °F
--% Chance of Precip.
Yesterday
High -- | Low -- °F
Precip. -- in
6:34 AM 7:48 PM
Waning Crescent, 1% visible
Pressure 30.05 in
Visibility 10.0 miles
Clouds Clear
Windchill 35 °F
Dew Point 24 °F
Humidity 63%
Rainfall 0.00 in
Snow Depth Not available.
UV 0 out of 12
Pollen 7.90 out of 12
Air Quality Not available.
Flu Activity Local Activity
METAR KDRO 180253Z AUTO 24005KT 10SM CLR 03/M06 A3003 RMK AO2 SLP174 T00281061 53006

More Conditions Fewer Conditions

Pressure 30.05 in
Visibility 10.0 miles
Clouds Clear
Windchill 35 °F
Dew Point 24 °F
Humidity 63%
Rainfall 0.00 in
Snow Depth Not available.
UV 0 out of 12
Pollen 7.90 out of 12
Air Quality Not available.
Flu Activity Local Activity
METAR KDRO 180253Z AUTO 24005KT 10SM CLR 03/M06 A3003 RMK AO2 SLP174 T00281061 53006

More Conditions Fewer Conditions

10-Day Weather Forecast

Almanac

Astronomy

Apr. 17, 2015 Rise Set
Actual Time
Civil Twilight
Nautical Twilight
Astronomical Twilight
Moon
Length of Visible Light
Length of Day
Tomorrow will be .
, % of the Moon is Illuminated

Today's Extremes

State Highs State Lows

Community

WunderPhotos

Upload Photos

1,814,316 photos uploaded!

WunderBlogs® & News

Nearby

Air Quality

  Air Quality AQ Index Pollutant
Not available.

Snow Depth

Station Depth Elevation

Earthquake Activity

City Distance Mag. Time & Date
Minimum magnitude displayed is 2.5.

Coastal Water Temperatures

Place Temperature

Stations

Nearby Weather Stations

Station Location Temp. Windchill Dew Point Humidity Wind Precip. Elev Updated Type